createdAt,value
2022-10-29T00:00:13.024Z,310.15
2022-10-29T00:01:13.112Z,310.70
2022-10-29T00:02:12.996Z,310.09
2022-10-29T00:03:13.074Z,310.65
2022-10-29T00:04:12.979Z,310.53
2022-10-29T00:05:12.972Z,310.45
2022-10-29T00:06:12.951Z,310.25
2022-10-29T00:07:12.961Z,310.53
2022-10-29T00:08:12.975Z,310.10
2022-10-29T00:09:12.935Z,310.79
2022-10-29T00:10:12.917Z,310.49
2022-10-29T00:11:12.912Z,310.49
2022-10-29T00:12:12.949Z,309.90
2022-10-29T00:13:12.906Z,310.70
2022-10-29T00:14:12.873Z,310.63
2022-10-29T00:15:12.863Z,311.10
2022-10-29T00:16:12.840Z,310.51
2022-10-29T00:17:12.851Z,310.51
2022-10-29T00:18:12.832Z,310.13
2022-10-29T00:19:12.801Z,310.92
2022-10-29T00:20:12.821Z,310.39
2022-10-29T00:21:12.804Z,310.05
2022-10-29T00:22:12.775Z,311.57
2022-10-29T00:23:12.767Z,310.83
2022-10-29T00:24:12.768Z,310.94
2022-10-29T00:25:12.740Z,310.34
2022-10-29T00:26:12.731Z,310.12
2022-10-29T00:27:12.741Z,310.02
2022-10-29T00:28:12.715Z,311.52
2022-10-29T00:29:12.705Z,310.44
2022-10-29T00:30:12.679Z,311.06
2022-10-29T00:31:12.713Z,311.04
2022-10-29T00:32:12.741Z,310.97
2022-10-29T00:33:12.683Z,310.49
2022-10-29T00:34:12.650Z,311.31
2022-10-29T00:35:12.633Z,310.32
2022-10-29T00:36:12.624Z,311.70
2022-10-29T00:37:12.614Z,312.43
2022-10-29T00:38:12.599Z,310.58
2022-10-29T00:39:12.585Z,311.01
2022-10-29T00:40:12.565Z,311.52
2022-10-29T00:41:12.572Z,310.73
2022-10-29T00:42:12.564Z,312.02
2022-10-29T00:43:12.537Z,310.96
2022-10-29T00:44:12.531Z,310.53
2022-10-29T00:45:12.523Z,311.05
2022-10-29T00:46:12.504Z,310.91
2022-10-29T00:47:12.531Z,311.18
2022-10-29T00:48:12.482Z,311.62
2022-10-29T00:49:12.473Z,310.64
2022-10-29T00:50:12.459Z,310.49
2022-10-29T00:51:12.450Z,310.98
2022-10-29T00:52:12.439Z,311.51
2022-10-29T00:53:12.464Z,311.38
2022-10-29T00:54:12.419Z,310.83
2022-10-29T00:55:12.402Z,310.54
2022-10-29T00:56:12.397Z,311.33
2022-10-29T00:57:12.380Z,311.41
2022-10-29T00:58:12.395Z,311.06
2022-10-29T00:59:12.362Z,311.29
2022-10-29T01:00:12.356Z,310.60
2022-10-29T01:01:12.435Z,311.47
2022-10-29T01:02:12.456Z,311.40
2022-10-29T01:03:12.472Z,310.92
2022-10-29T01:04:12.316Z,310.95
2022-10-29T01:05:12.290Z,310.62
2022-10-29T01:06:12.276Z,309.97
2022-10-29T01:07:12.276Z,311.20
2022-10-29T01:08:12.749Z,311.72
2022-10-29T01:09:13.215Z,310.70
2022-10-29T01:10:12.237Z,310.24
2022-10-29T01:11:12.227Z,311.02
2022-10-29T01:12:12.232Z,310.38
2022-10-29T01:13:12.385Z,310.42
2022-10-29T01:14:12.205Z,310.76
2022-10-29T01:15:12.184Z,310.62
2022-10-29T01:16:12.176Z,310.54
2022-10-29T01:17:12.163Z,310.71
2022-10-29T01:18:12.152Z,310.06
2022-10-29T01:19:12.817Z,311.27
2022-10-29T01:20:12.125Z,310.27
2022-10-29T01:21:12.117Z,310.89
2022-10-29T01:22:12.099Z,310.39
2022-10-29T01:23:12.094Z,311.71
2022-10-29T01:24:12.094Z,311.32
2022-10-29T01:25:12.077Z,310.89
2022-10-29T01:26:12.094Z,310.97
2022-10-29T01:27:12.054Z,311.15
2022-10-29T01:28:12.038Z,310.80
2022-10-29T01:29:12.029Z,310.64
2022-10-29T01:30:12.045Z,310.65
2022-10-29T01:31:12.019Z,310.58
2022-10-29T01:32:11.993Z,310.69
2022-10-29T01:33:11.998Z,310.02
2022-10-29T01:34:11.967Z,310.39
2022-10-29T01:35:11.954Z,310.27
2022-10-29T01:36:11.963Z,310.61
2022-10-29T01:37:11.947Z,311.39
2022-10-29T01:38:11.929Z,311.82
2022-10-29T01:39:11.909Z,311.20
2022-10-29T01:40:11.909Z,311.06
2022-10-29T01:41:11.897Z,310.75
2022-10-29T01:42:11.899Z,311.56
2022-10-29T01:43:11.929Z,311.62
2022-10-29T01:44:11.859Z,311.80
2022-10-29T01:45:11.849Z,310.50
2022-10-29T01:46:11.835Z,310.71
2022-10-29T01:47:11.820Z,310.37
2022-10-29T01:48:11.815Z,310.52
2022-10-29T01:49:11.804Z,311.15
2022-10-29T01:50:11.795Z,310.33
2022-10-29T01:51:11.780Z,310.42
2022-10-29T01:52:11.779Z,311.69
2022-10-29T01:53:11.769Z,311.46
2022-10-29T01:54:11.758Z,311.91
2022-10-29T01:55:11.730Z,310.48
2022-10-29T01:56:11.713Z,310.44
2022-10-29T01:57:11.710Z,311.09
2022-10-29T01:58:11.810Z,310.88
2022-10-29T01:59:18.370Z,310.29
2022-10-29T02:00:12.681Z,310.51
2022-10-29T02:01:11.806Z,310.47
2022-10-29T02:02:11.671Z,311.46
2022-10-29T02:03:11.654Z,310.35
2022-10-29T02:04:11.633Z,310.53
2022-10-29T02:05:11.618Z,309.93
2022-10-29T02:06:11.610Z,310.77
2022-10-29T02:07:11.602Z,312.11
2022-10-29T02:08:11.621Z,310.67
2022-10-29T02:09:11.580Z,310.58
2022-10-29T02:10:11.564Z,311.83
2022-10-29T02:11:11.565Z,310.71
2022-10-29T02:12:11.540Z,310.74
2022-10-29T02:13:11.615Z,310.83
2022-10-29T02:14:11.532Z,310.59
2022-10-29T02:15:11.506Z,310.62
2022-10-29T02:16:11.493Z,310.43
2022-10-29T02:17:11.492Z,311.00
2022-10-29T02:18:11.479Z,310.30
2022-10-29T02:19:11.486Z,310.55
2022-10-29T02:20:11.510Z,310.13
2022-10-29T02:21:11.460Z,310.76
2022-10-29T02:22:11.427Z,311.04
2022-10-29T02:23:11.426Z,310.88
2022-10-29T02:24:11.424Z,310.50
2022-10-29T02:25:11.471Z,310.98
2022-10-29T02:26:11.386Z,310.73
2022-10-29T02:27:11.381Z,311.16
2022-10-29T02:28:11.383Z,310.73
2022-10-29T02:29:11.350Z,310.81
2022-10-29T02:30:11.354Z,311.41
2022-10-29T02:31:11.326Z,311.46
2022-10-29T02:32:11.310Z,311.10
2022-10-29T02:33:11.323Z,311.03
2022-10-29T02:34:11.305Z,310.58
2022-10-29T02:35:11.294Z,311.93
2022-10-29T02:36:11.297Z,311.88
2022-10-29T02:37:11.280Z,310.84
2022-10-29T02:38:11.290Z,311.11
2022-10-29T02:39:11.266Z,311.03
2022-10-29T02:40:11.224Z,311.28
2022-10-29T02:41:11.228Z,310.77
2022-10-29T02:42:11.200Z,311.22
2022-10-29T02:43:11.261Z,311.00
2022-10-29T02:44:11.188Z,311.30
2022-10-29T02:45:11.172Z,311.42
2022-10-29T02:46:11.160Z,310.58
2022-10-29T02:47:11.158Z,310.17
2022-10-29T02:48:11.136Z,310.94
2022-10-29T02:49:11.128Z,310.34
2022-10-29T02:50:11.115Z,311.92
2022-10-29T02:51:11.109Z,311.51
2022-10-29T02:52:11.113Z,311.47
2022-10-29T02:53:11.101Z,311.57
2022-10-29T02:54:11.073Z,310.86
2022-10-29T02:55:11.066Z,311.17
2022-10-29T02:56:11.044Z,311.07
2022-10-29T02:57:11.031Z,311.11
2022-10-29T02:58:11.078Z,310.95
2022-10-29T02:59:12.010Z,310.98
2022-10-29T03:00:10.999Z,311.50
2022-10-29T03:01:11.039Z,311.05
2022-10-29T03:02:11.103Z,312.02
2022-10-29T03:03:10.986Z,310.57
2022-10-29T03:04:10.967Z,311.12
2022-10-29T03:05:10.948Z,311.59
2022-10-29T03:06:10.933Z,311.96
2022-10-29T03:07:10.924Z,311.31
2022-10-29T03:08:10.911Z,310.68
2022-10-29T03:09:10.918Z,311.25
2022-10-29T03:10:10.895Z,310.44
2022-10-29T03:11:10.880Z,311.09
2022-10-29T03:12:10.864Z,310.96
2022-10-29T03:13:10.854Z,311.42
2022-10-29T03:14:10.854Z,310.85
2022-10-29T03:15:10.849Z,311.27
2022-10-29T03:16:10.821Z,310.08
2022-10-29T03:17:10.819Z,310.24
2022-10-29T03:18:10.801Z,311.00
2022-10-29T03:19:10.794Z,310.92
2022-10-29T03:20:10.801Z,310.82
2022-10-29T03:21:10.771Z,311.45
2022-10-29T03:22:10.753Z,311.03
2022-10-29T03:23:10.746Z,310.94
2022-10-29T03:24:10.758Z,310.60
2022-10-29T03:25:10.735Z,310.94
2022-10-29T03:26:10.740Z,311.31
2022-10-29T03:27:10.707Z,310.78
2022-10-29T03:28:10.691Z,310.62
2022-10-29T03:29:10.684Z,311.31
2022-10-29T03:30:10.668Z,310.84
2022-10-29T03:31:10.672Z,310.98
2022-10-29T03:32:10.687Z,311.48
2022-10-29T03:33:10.642Z,311.00
2022-10-29T03:34:10.623Z,311.08
2022-10-29T03:35:10.611Z,310.90
2022-10-29T03:36:10.760Z,310.60
2022-10-29T03:37:10.600Z,310.35
2022-10-29T03:38:10.578Z,310.91
2022-10-29T03:39:10.564Z,310.66
2022-10-29T03:40:10.556Z,310.53
2022-10-29T03:41:10.829Z,310.67
2022-10-29T03:42:10.524Z,310.40
2022-10-29T03:43:10.541Z,310.86
2022-10-29T03:44:10.513Z,310.78
2022-10-29T03:45:10.514Z,311.03
2022-10-29T03:46:10.489Z,311.89
2022-10-29T03:47:10.483Z,310.65
2022-10-29T03:48:10.472Z,311.17
2022-10-29T03:49:11.223Z,311.37
2022-10-29T03:50:10.451Z,311.97
2022-10-29T03:51:10.433Z,311.62
2022-10-29T03:52:10.418Z,311.78
2022-10-29T03:53:10.418Z,311.07
2022-10-29T03:54:10.404Z,311.16
2022-10-29T03:55:10.417Z,311.63
2022-10-29T03:56:10.369Z,311.34
2022-10-29T03:57:10.370Z,311.28
2022-10-29T03:58:10.346Z,311.41
2022-10-29T04:00:10.336Z,311.66
2022-10-29T04:01:10.453Z,312.13
2022-10-29T04:02:10.513Z,311.23
2022-10-29T04:03:10.311Z,310.84
2022-10-29T04:04:10.302Z,312.26
2022-10-29T04:05:10.311Z,311.84
2022-10-29T04:06:10.277Z,312.08
2022-10-29T04:07:10.255Z,312.07
2022-10-29T04:08:10.264Z,311.18
2022-10-29T04:09:10.245Z,311.85
2022-10-29T04:10:10.227Z,311.45
2022-10-29T04:11:10.218Z,312.00
2022-10-29T04:12:10.200Z,312.37
2022-10-29T04:13:10.228Z,311.68
2022-10-29T04:14:10.200Z,311.46
2022-10-29T04:15:10.178Z,310.95
2022-10-29T04:16:10.184Z,311.34
2022-10-29T04:17:10.791Z,311.27
2022-10-29T04:18:10.170Z,312.25
2022-10-29T04:19:10.139Z,311.36
2022-10-29T04:20:21.069Z,311.51
2022-10-29T04:24:18.805Z,311.30
2022-10-29T04:28:42.437Z,311.13
2022-10-29T04:29:11.017Z,312.01
2022-10-29T04:30:10.094Z,311.31
2022-10-29T04:31:09.989Z,310.88
2022-10-29T04:32:09.976Z,311.94
2022-10-29T04:33:09.968Z,311.43
2022-10-29T04:34:09.956Z,311.64
2022-10-29T04:35:09.954Z,311.89
2022-10-29T04:36:09.964Z,311.95
2022-10-29T04:37:09.929Z,311.60
2022-10-29T04:38:09.911Z,312.18
2022-10-29T04:39:09.914Z,311.47
2022-10-29T04:40:09.895Z,312.04
2022-10-29T04:41:09.905Z,312.06
2022-10-29T04:42:09.993Z,312.77
2022-10-29T04:43:09.855Z,311.69
2022-10-29T04:44:09.846Z,312.22
2022-10-29T04:45:09.834Z,311.13
2022-10-29T04:46:09.823Z,311.64
2022-10-29T04:47:09.832Z,312.71
2022-10-29T04:48:09.821Z,313.31
2022-10-29T04:49:09.882Z,312.14
2022-10-29T04:50:09.783Z,312.23
2022-10-29T04:51:09.778Z,311.88
2022-10-29T04:52:10.740Z,312.43
2022-10-29T04:53:09.745Z,312.15
2022-10-29T04:54:09.742Z,312.63
2022-10-29T04:55:09.720Z,312.17
2022-10-29T04:56:09.731Z,312.10
2022-10-29T04:57:09.698Z,311.85
2022-10-29T04:58:09.692Z,311.97
2022-10-29T04:59:09.672Z,311.74
2022-10-29T05:00:11.021Z,312.55
2022-10-29T05:01:09.811Z,312.16
2022-10-29T05:02:09.643Z,312.64
2022-10-29T05:03:09.635Z,312.24
2022-10-29T05:04:09.618Z,311.98
2022-10-29T05:05:09.613Z,311.97
2022-10-29T05:06:09.663Z,312.58
2022-10-29T05:07:09.606Z,312.55
2022-10-29T05:08:09.583Z,312.49
2022-10-29T05:09:09.568Z,312.46
2022-10-29T05:10:09.574Z,311.87
2022-10-29T05:11:09.569Z,311.50
2022-10-29T05:12:09.533Z,312.33
2022-10-29T05:13:09.553Z,311.90
2022-10-29T05:14:09.513Z,311.37
2022-10-29T05:15:09.507Z,311.43
2022-10-29T05:16:09.523Z,311.92
2022-10-29T05:17:09.479Z,312.79
2022-10-29T05:18:09.483Z,311.84
2022-10-29T05:19:09.451Z,311.69
2022-10-29T05:20:09.441Z,311.63
2022-10-29T05:21:09.429Z,311.91
2022-10-29T05:22:09.426Z,312.23
2022-10-29T05:23:09.408Z,311.77
2022-10-29T05:24:09.398Z,311.93
2022-10-29T05:25:09.389Z,311.96
2022-10-29T05:26:09.385Z,311.52
2022-10-29T05:27:09.383Z,312.09
2022-10-29T05:28:09.359Z,312.06
2022-10-29T05:29:09.345Z,311.50
2022-10-29T05:30:09.339Z,311.97
2022-10-29T05:31:09.321Z,312.86
2022-10-29T05:32:09.327Z,312.09
2022-10-29T05:33:09.320Z,311.42
2022-10-29T05:34:09.294Z,311.46
2022-10-29T05:35:09.272Z,311.31
2022-10-29T05:36:09.264Z,311.62
2022-10-29T05:37:09.250Z,312.07
2022-10-29T05:38:09.256Z,311.60
2022-10-29T05:39:09.232Z,311.82
2022-10-29T05:40:09.244Z,312.84
2022-10-29T05:41:09.223Z,311.97
2022-10-29T05:42:09.198Z,312.11
2022-10-29T05:43:09.231Z,312.00
2022-10-29T05:44:09.196Z,312.28
2022-10-29T05:45:09.169Z,312.65
2022-10-29T05:46:09.155Z,311.79
2022-10-29T05:47:09.137Z,311.58
2022-10-29T05:48:09.173Z,312.09
2022-10-29T05:49:09.136Z,312.03
2022-10-29T05:50:09.109Z,312.40
2022-10-29T05:51:09.103Z,312.58
2022-10-29T05:52:09.116Z,312.50
2022-10-29T05:53:09.084Z,312.59
2022-10-29T05:54:09.066Z,312.64
2022-10-29T05:55:09.064Z,312.45
2022-10-29T05:56:09.043Z,312.00
2022-10-29T05:57:09.040Z,312.22
2022-10-29T05:58:09.016Z,312.57
2022-10-29T05:59:09.011Z,312.90
2022-10-29T06:00:09.004Z,312.73
2022-10-29T06:01:09.004Z,313.39
2022-10-29T06:02:09.158Z,312.44
2022-10-29T06:03:09.028Z,312.78
2022-10-29T06:04:08.959Z,312.08
2022-10-29T06:05:08.977Z,312.29
2022-10-29T06:06:09.122Z,311.69
2022-10-29T06:07:08.918Z,312.47
2022-10-29T06:08:08.930Z,311.45
2022-10-29T06:09:08.898Z,312.62
2022-10-29T06:10:08.889Z,311.72
2022-10-29T06:11:08.881Z,312.49
2022-10-29T06:12:08.881Z,312.73
2022-10-29T06:13:08.848Z,311.35
2022-10-29T06:14:08.840Z,311.76
2022-10-29T06:15:08.833Z,312.57
2022-10-29T06:16:08.829Z,313.03
2022-10-29T06:17:08.806Z,311.85
2022-10-29T06:18:08.814Z,311.88
2022-10-29T06:19:08.780Z,312.54
2022-10-29T06:20:08.783Z,312.96
2022-10-29T06:21:08.778Z,312.17
2022-10-29T06:22:08.756Z,311.92
2022-10-29T06:23:08.746Z,312.31
2022-10-29T06:24:08.735Z,312.17
2022-10-29T06:25:08.724Z,311.82
2022-10-29T06:26:08.729Z,312.26
2022-10-29T06:27:08.705Z,313.03
2022-10-29T06:28:08.692Z,312.32
2022-10-29T06:29:08.683Z,311.63
2022-10-29T06:30:08.670Z,312.93
2022-10-29T06:31:08.667Z,313.22
2022-10-29T06:32:08.640Z,312.05
2022-10-29T06:33:08.629Z,312.27
2022-10-29T06:34:08.623Z,312.42
2022-10-29T06:35:08.635Z,312.12
2022-10-29T06:36:08.613Z,312.38
2022-10-29T06:37:08.591Z,312.10
2022-10-29T06:38:11.924Z,312.12
2022-10-29T06:39:08.564Z,312.01
2022-10-29T06:40:08.556Z,311.95
2022-10-29T06:41:08.544Z,311.66
2022-10-29T06:42:08.549Z,311.91
2022-10-29T06:43:08.526Z,312.56
2022-10-29T06:44:08.517Z,312.33
2022-10-29T06:45:08.496Z,312.67
2022-10-29T06:46:08.505Z,312.83
2022-10-29T06:47:08.473Z,311.50
2022-10-29T06:48:08.473Z,312.36
2022-10-29T06:49:08.446Z,312.75
2022-10-29T06:50:08.450Z,312.83
2022-10-29T06:51:08.477Z,312.82
2022-10-29T06:52:08.425Z,312.15
2022-10-29T06:53:08.408Z,311.74
2022-10-29T06:54:08.407Z,312.35
2022-10-29T06:55:08.381Z,312.68
2022-10-29T06:56:08.370Z,312.38
2022-10-29T06:57:08.370Z,311.86
2022-10-29T06:58:08.366Z,311.99
2022-10-29T06:59:08.360Z,311.63
2022-10-29T07:00:09.287Z,312.58
2022-10-29T07:01:08.342Z,312.35
2022-10-29T07:02:08.353Z,312.40
2022-10-29T07:03:08.298Z,312.23
2022-10-29T07:04:08.304Z,312.27
2022-10-29T07:05:08.277Z,311.72
2022-10-29T07:06:08.282Z,311.49
2022-10-29T07:07:08.255Z,310.80
2022-10-29T07:08:08.258Z,311.37
2022-10-29T07:09:08.231Z,310.77
2022-10-29T07:10:08.241Z,311.44
2022-10-29T07:11:08.206Z,311.02
2022-10-29T07:12:08.198Z,310.90
2022-10-29T07:13:08.183Z,310.97
2022-10-29T07:14:08.171Z,310.76
2022-10-29T07:15:08.164Z,311.75
2022-10-29T07:16:08.162Z,310.52
2022-10-29T07:17:08.139Z,310.56
2022-10-29T07:18:08.136Z,310.68
2022-10-29T07:19:08.125Z,310.36
2022-10-29T07:20:08.113Z,311.07
2022-10-29T07:21:08.110Z,310.77
2022-10-29T07:22:08.087Z,311.10
2022-10-29T07:23:08.080Z,311.21
2022-10-29T07:24:08.072Z,310.81
2022-10-29T07:25:08.051Z,310.57
2022-10-29T07:26:08.052Z,311.18
2022-10-29T07:27:08.072Z,310.21
2022-10-29T07:28:08.901Z,310.04
2022-10-29T07:29:08.007Z,311.58
2022-10-29T07:30:07.999Z,310.05
2022-10-29T07:31:07.997Z,310.77
2022-10-29T07:32:07.979Z,310.05
2022-10-29T07:33:07.965Z,310.07
2022-10-29T07:34:07.962Z,310.38
2022-10-29T07:35:07.936Z,309.86
2022-10-29T07:36:07.930Z,310.08
2022-10-29T07:37:08.797Z,310.55
2022-10-29T07:38:10.725Z,310.00
2022-10-29T07:39:07.895Z,309.70
2022-10-29T07:40:07.885Z,309.76
2022-10-29T07:41:07.929Z,310.85
2022-10-29T07:42:07.864Z,310.51
2022-10-29T07:43:07.881Z,310.37
2022-10-29T07:44:07.846Z,310.37
2022-10-29T07:45:07.845Z,310.49
2022-10-29T07:46:07.825Z,311.63
2022-10-29T07:47:07.807Z,309.96
2022-10-29T07:48:07.819Z,309.56
2022-10-29T07:49:07.793Z,310.89
2022-10-29T07:50:07.774Z,310.61
2022-10-29T07:51:07.766Z,310.02
2022-10-29T07:52:07.754Z,310.48
2022-10-29T07:53:07.742Z,309.67
2022-10-29T07:54:10.875Z,309.76
2022-10-29T07:55:08.715Z,309.52
2022-10-29T07:56:07.712Z,309.61
2022-10-29T07:57:07.693Z,310.19
2022-10-29T07:58:07.688Z,309.83
2022-10-29T07:59:07.686Z,309.73
2022-10-29T08:00:07.666Z,311.10
2022-10-29T08:01:07.716Z,310.51
2022-10-29T08:02:07.671Z,310.16
2022-10-29T08:03:07.635Z,309.79
2022-10-29T08:04:07.637Z,309.38
2022-10-29T08:05:07.608Z,310.22
2022-10-29T08:06:07.608Z,309.64
2022-10-29T08:07:07.583Z,310.24
2022-10-29T08:08:07.597Z,309.62
2022-10-29T08:09:07.560Z,310.11
2022-10-29T08:10:07.562Z,309.85
2022-10-29T08:11:07.533Z,309.94
2022-10-29T08:12:07.536Z,309.58
2022-10-29T08:13:07.515Z,308.07
2022-10-29T08:14:07.507Z,309.09
2022-10-29T08:15:07.492Z,309.65
2022-10-29T08:16:07.504Z,307.29
2022-10-29T08:17:07.475Z,308.56
2022-10-29T08:18:07.466Z,306.02
2022-10-29T08:19:07.451Z,306.89
2022-10-29T08:20:07.466Z,306.52
2022-10-29T08:21:07.449Z,304.98
2022-10-29T08:22:07.434Z,306.25
2022-10-29T08:23:07.408Z,305.94
2022-10-29T08:24:07.403Z,305.73
2022-10-29T08:25:07.381Z,304.85
2022-10-29T08:26:07.397Z,305.21
2022-10-29T08:27:07.377Z,305.48
2022-10-29T08:28:07.389Z,305.74
2022-10-29T08:29:07.341Z,305.01
2022-10-29T08:30:07.336Z,306.10
2022-10-29T08:31:07.318Z,306.62
2022-10-29T08:32:07.340Z,306.91
2022-10-29T08:33:07.309Z,305.14
2022-10-29T08:34:11.099Z,306.55
2022-10-29T08:35:07.267Z,307.61
2022-10-29T08:36:07.270Z,307.70
2022-10-29T08:37:07.263Z,308.46
2022-10-29T08:38:07.241Z,311.10
2022-10-29T08:39:07.231Z,311.98
2022-10-29T08:40:07.221Z,311.49
2022-10-29T08:41:07.233Z,312.04
2022-10-29T08:42:07.200Z,312.66
2022-10-29T08:43:07.201Z,313.13
2022-10-29T08:44:07.185Z,313.03
2022-10-29T08:45:07.171Z,312.65
2022-10-29T08:46:07.160Z,312.83
2022-10-29T08:47:08.013Z,312.13
2022-10-29T08:48:07.146Z,312.35
2022-10-29T08:49:07.120Z,312.09
2022-10-29T08:50:07.109Z,313.25
2022-10-29T08:51:07.114Z,312.18
2022-10-29T08:52:07.089Z,313.15
2022-10-29T08:53:24.004Z,313.34
2022-10-29T08:54:29.998Z,311.74
2022-10-29T08:55:08.058Z,312.15
2022-10-29T08:56:07.051Z,313.11
2022-10-29T08:57:07.028Z,312.30
2022-10-29T08:58:07.033Z,313.12
2022-10-29T08:59:07.035Z,311.92
2022-10-29T09:01:07.040Z,312.62
2022-10-29T09:02:07.044Z,313.38
2022-10-29T09:03:06.964Z,314.06
2022-10-29T09:04:06.942Z,313.33
2022-10-29T09:05:06.958Z,311.75
2022-10-29T09:06:06.925Z,312.61
2022-10-29T09:07:06.917Z,312.50
2022-10-29T09:08:06.905Z,313.17
2022-10-29T09:09:06.888Z,312.66
2022-10-29T09:10:06.925Z,312.31
2022-10-29T09:11:06.878Z,312.63
2022-10-29T09:12:06.872Z,313.29
2022-10-29T09:13:06.907Z,310.95
2022-10-29T09:14:07.839Z,312.46
2022-10-29T09:15:06.830Z,313.74
2022-10-29T09:16:06.831Z,313.69
2022-10-29T09:17:08.288Z,314.04
2022-10-29T09:18:06.795Z,313.32
2022-10-29T09:19:06.774Z,314.23
2022-10-29T09:20:06.769Z,313.20
2022-10-29T09:21:06.766Z,313.48
2022-10-29T09:22:06.742Z,312.94
2022-10-29T09:23:06.735Z,312.93
2022-10-29T09:24:06.721Z,312.11
2022-10-29T09:25:06.715Z,312.60
2022-10-29T09:26:06.699Z,313.16
2022-10-29T09:27:09.756Z,313.12
2022-10-29T09:28:06.682Z,314.03
2022-10-29T09:29:06.668Z,315.11
2022-10-29T09:30:06.656Z,313.46
2022-10-29T09:31:06.639Z,314.10
2022-10-29T09:32:06.639Z,314.98
2022-10-29T09:33:06.615Z,314.07
2022-10-29T09:34:06.603Z,312.51
2022-10-29T09:35:06.702Z,314.15
2022-10-29T09:36:06.580Z,315.77
2022-10-29T09:37:06.590Z,314.24
2022-10-29T09:38:06.595Z,309.06
2022-10-29T09:39:06.583Z,310.27
2022-10-29T09:40:06.615Z,308.16
2022-10-29T09:41:06.583Z,310.00
2022-10-29T09:42:06.592Z,309.30
2022-10-29T09:43:06.524Z,307.91
2022-10-29T09:44:06.522Z,309.33
2022-10-29T09:45:06.539Z,309.43
2022-10-29T09:46:06.501Z,309.14
2022-10-29T09:47:09.642Z,307.83
2022-10-29T09:48:06.493Z,310.47
2022-10-29T09:50:08.751Z,308.07
2022-10-29T09:51:06.472Z,309.24
2022-10-29T09:52:06.420Z,308.25
2022-10-29T09:53:06.427Z,308.15
2022-10-29T09:54:06.469Z,308.75
2022-10-29T09:55:06.378Z,309.55
2022-10-29T09:56:06.356Z,307.66
2022-10-29T09:57:06.357Z,309.03
2022-10-29T09:58:06.342Z,308.46
2022-10-29T09:59:06.356Z,309.53
2022-10-29T10:00:06.329Z,309.26
2022-10-29T10:01:06.310Z,308.33
2022-10-29T10:02:06.454Z,310.05
2022-10-29T10:03:06.347Z,310.43
2022-10-29T10:04:06.279Z,308.98
2022-10-29T10:05:06.256Z,306.84
2022-10-29T10:06:06.263Z,308.43
2022-10-29T10:07:06.241Z,308.57
2022-10-29T10:08:06.228Z,307.99
2022-10-29T10:09:06.218Z,309.16
2022-10-29T10:10:06.222Z,308.86
2022-10-29T10:11:06.198Z,308.35
2022-10-29T10:12:06.195Z,308.38
2022-10-29T10:13:06.183Z,308.75
2022-10-29T10:14:06.167Z,308.98
2022-10-29T10:15:06.146Z,308.88
2022-10-29T10:16:06.205Z,309.53
2022-10-29T10:17:06.131Z,309.31
2022-10-29T10:18:06.119Z,310.92
2022-10-29T10:19:06.109Z,310.14
2022-10-29T10:20:06.096Z,310.22
2022-10-29T10:21:06.090Z,308.31
2022-10-29T10:22:06.102Z,309.26
2022-10-29T10:23:06.868Z,310.22
2022-10-29T10:24:06.060Z,309.40
2022-10-29T10:25:06.104Z,310.05
2022-10-29T10:26:06.065Z,309.94
2022-10-29T10:27:06.028Z,306.53
2022-10-29T10:28:06.025Z,310.18
2022-10-29T10:29:05.992Z,310.33
2022-10-29T10:30:05.983Z,309.56
2022-10-29T10:31:05.982Z,309.94
2022-10-29T10:32:05.970Z,311.28
2022-10-29T10:33:05.952Z,310.57
2022-10-29T10:34:05.950Z,309.24
2022-10-29T10:35:05.936Z,310.01
2022-10-29T10:36:05.937Z,309.54
2022-10-29T10:37:05.964Z,310.83
2022-10-29T10:38:05.897Z,310.10
2022-10-29T10:39:05.886Z,310.94
2022-10-29T10:40:05.893Z,310.00
2022-10-29T10:41:05.862Z,310.80
2022-10-29T10:42:05.867Z,311.76
2022-10-29T10:43:08.288Z,310.12
2022-10-29T10:44:05.851Z,308.81
2022-10-29T10:45:05.821Z,310.37
2022-10-29T10:46:05.802Z,309.30
2022-10-29T10:47:06.481Z,310.83
2022-10-29T10:48:05.909Z,310.28
2022-10-29T10:49:05.789Z,310.83
2022-10-29T10:50:05.771Z,311.77
2022-10-29T10:51:05.759Z,311.37
2022-10-29T10:52:05.743Z,311.98
2022-10-29T10:53:05.745Z,310.15
2022-10-29T10:54:05.746Z,312.02
2022-10-29T10:55:05.714Z,310.35
2022-10-29T10:56:05.702Z,310.61
2022-10-29T10:57:05.708Z,310.68
2022-10-29T10:58:05.672Z,311.04
2022-10-29T10:59:05.686Z,310.72
2022-10-29T11:00:05.657Z,310.98
2022-10-29T11:01:05.730Z,310.73
2022-10-29T11:02:05.710Z,311.24
2022-10-29T11:03:05.629Z,310.62
2022-10-29T11:04:05.625Z,309.89
2022-10-29T11:05:07.945Z,311.54
2022-10-29T11:06:05.615Z,311.88
2022-10-29T11:07:05.589Z,310.62
2022-10-29T11:08:05.573Z,311.25
2022-10-29T11:09:05.576Z,310.14
2022-10-29T11:10:05.557Z,311.38
2022-10-29T11:11:05.552Z,310.15
2022-10-29T11:12:05.525Z,310.24
2022-10-29T11:13:05.515Z,309.20
2022-10-29T11:14:05.504Z,309.43
2022-10-29T11:15:05.498Z,309.68
2022-10-29T11:16:05.495Z,309.95
2022-10-29T11:17:05.485Z,309.35
2022-10-29T11:18:05.531Z,311.23
2022-10-29T11:19:05.449Z,309.81
2022-10-29T11:20:05.430Z,310.33
2022-10-29T11:21:05.439Z,310.83
2022-10-29T11:22:05.415Z,310.52
2022-10-29T11:23:05.404Z,310.28
2022-10-29T11:24:05.405Z,310.54
2022-10-29T11:25:05.394Z,306.94
2022-10-29T11:26:05.390Z,307.27
2022-10-29T11:27:05.361Z,307.08
2022-10-29T11:28:05.359Z,309.10
2022-10-29T11:29:05.367Z,308.52
2022-10-29T11:30:05.340Z,308.89
2022-10-29T11:31:05.322Z,308.80
2022-10-29T11:32:05.331Z,311.31
2022-10-29T11:33:05.340Z,306.16
2022-10-29T11:34:05.288Z,306.47
2022-10-29T11:35:05.287Z,306.20
2022-10-29T11:36:05.261Z,306.27
2022-10-29T11:37:05.268Z,308.13
2022-10-29T11:38:05.267Z,307.27
2022-10-29T11:39:05.230Z,308.30
2022-10-29T11:40:05.261Z,308.05
2022-10-29T11:41:05.222Z,308.86
2022-10-29T11:42:05.218Z,308.43
2022-10-29T11:43:08.523Z,308.78
2022-10-29T11:44:05.167Z,309.54
2022-10-29T11:45:05.169Z,309.48
2022-10-29T11:46:05.151Z,308.83
2022-10-29T11:47:05.161Z,309.17
2022-10-29T11:48:05.187Z,310.38
2022-10-29T11:49:05.142Z,309.93
2022-10-29T11:50:05.115Z,309.93
2022-10-29T11:51:05.100Z,309.80
2022-10-29T11:52:05.110Z,309.97
2022-10-29T11:53:05.077Z,309.95
2022-10-29T11:54:05.063Z,309.18
2022-10-29T11:55:05.056Z,310.00
2022-10-29T11:56:05.045Z,308.88
2022-10-29T11:57:05.039Z,310.04
2022-10-29T11:58:05.046Z,309.97
2022-10-29T11:59:05.006Z,310.73
2022-10-29T12:00:04.990Z,308.18
2022-10-29T12:01:04.993Z,309.62
2022-10-29T12:02:05.056Z,310.52
2022-10-29T12:03:04.988Z,309.57
2022-10-29T12:04:04.995Z,309.13
2022-10-29T12:05:04.980Z,309.15
2022-10-29T12:06:04.927Z,309.26
2022-10-29T12:07:04.927Z,310.95
2022-10-29T12:08:04.921Z,307.04
2022-10-29T12:09:04.893Z,306.76
2022-10-29T12:10:04.878Z,307.66
2022-10-29T12:11:04.871Z,309.45
2022-10-29T12:12:04.862Z,309.82
2022-10-29T12:13:04.852Z,309.65
2022-10-29T12:14:04.854Z,310.15
2022-10-29T12:15:04.826Z,310.78
2022-10-29T12:16:04.823Z,309.82
2022-10-29T12:17:04.818Z,309.29
2022-10-29T12:18:04.828Z,309.53
2022-10-29T12:19:04.796Z,311.07
2022-10-29T12:21:04.758Z,308.83
2022-10-29T12:22:04.768Z,310.66
2022-10-29T12:23:08.003Z,309.94
2022-10-29T12:24:05.725Z,310.83
2022-10-29T12:25:04.727Z,309.75
2022-10-29T12:26:04.739Z,309.52
2022-10-29T12:27:04.698Z,311.15
2022-10-29T12:28:04.685Z,308.86
2022-10-29T12:29:04.681Z,310.69
2022-10-29T12:30:04.660Z,310.07
2022-10-29T12:31:04.648Z,311.52
2022-10-29T12:32:04.650Z,310.89
2022-10-29T12:33:05.439Z,309.49
2022-10-29T12:34:04.620Z,311.73
2022-10-29T12:35:04.674Z,310.59
2022-10-29T12:36:04.599Z,309.55
2022-10-29T12:37:04.582Z,309.70
2022-10-29T12:38:04.585Z,309.58